Time;durP1;ratioP1;P1;durP2;ratioP2;P2;SDS_P1;SDS_P2;PMS_P1;PMS_P2;Temp;Humidity;BMP_temperature;BMP_pressure;BME280_temperature;BME280_humidity;BME280_pressure;Samples;Min_cycle;Max_cycle;Signal;HPM_P1;HPM_P2
2021/12/18 00:01:34;;;;;;;16.50;9.48;;;-0.60;99.90;;;;;;4991967;28;20178;-76
2021/12/18 00:04:01;;;;;;;16.33;9.18;;;-0.60;99.90;;;;;;5012734;28;20210;-76
2021/12/18 00:06:27;;;;;;;18.58;8.70;;;-0.60;99.90;;;;;;5013333;28;20155;-75
2021/12/18 00:08:54;;;;;;;13.55;8.50;;;-0.70;99.90;;;;;;5013044;28;20213;-74
2021/12/18 00:11:20;;;;;;;19.50;8.80;;;-0.80;99.90;;;;;;5013270;28;20238;-75
2021/12/18 00:13:46;;;;;;;15.38;8.55;;;-0.80;99.90;;;;;;5013008;28;20311;-75
2021/12/18 00:16:12;;;;;;;18.42;9.00;;;-0.90;99.90;;;;;;5013204;28;20155;-76
2021/12/18 00:18:38;;;;;;;19.65;10.18;;;-0.90;99.90;;;;;;5013172;28;20163;-76
2021/12/18 00:21:07;;;;;;;19.25;10.38;;;-0.90;99.90;;;;;;5012993;28;20214;-76
2021/12/18 00:23:33;;;;;;;18.00;10.65;;;-1.00;99.90;;;;;;5013024;28;20174;-76
2021/12/18 00:25:59;;;;;;;19.33;10.75;;;-0.90;99.90;;;;;;5013045;28;20159;-75
2021/12/18 00:28:25;;;;;;;21.95;10.88;;;-1.00;99.90;;;;;;5019207;28;20626;-75
2021/12/18 00:30:50;;;;;;;21.98;10.00;;;-1.10;99.90;;;;;;5015736;28;20178;-76
2021/12/18 00:33:16;;;;;;;19.50;11.68;;;-1.20;99.90;;;;;;5012765;28;20168;-75
2021/12/18 00:35:43;;;;;;;26.25;11.90;;;-1.10;99.90;;;;;;5012671;28;20213;-76
2021/12/18 00:38:09;;;;;;;19.80;11.68;;;-1.20;99.90;;;;;;5012690;28;20222;-76
2021/12/18 00:40:46;;;;;;;19.45;10.05;;;-1.20;99.90;;;;;;4994857;28;20174;-76
2021/12/18 00:43:23;;;;;;;18.20;9.43;;;-1.30;99.90;;;;;;5012568;28;20174;-76
2021/12/18 00:45:51;;;;;;;21.17;11.43;;;-1.30;99.90;;;;;;5012559;28;20174;-76
2021/12/18 00:48:17;;;;;;;16.27;9.30;;;-1.30;99.90;;;;;;5012519;28;20205;-76
2021/12/18 00:50:43;;;;;;;16.00;9.63;;;-1.20;99.90;;;;;;5012512;28;20159;-76
2021/12/18 00:53:09;;;;;;;17.52;9.90;;;-1.30;99.90;;;;;;5011073;28;20166;-77
2021/12/18 00:55:37;;;;;;;16.00;8.82;;;-1.30;99.90;;;;;;5012301;28;20322;-77
2021/12/18 00:58:04;;;;;;;15.77;7.90;;;-1.50;99.90;;;;;;4994748;28;20201;-76
2021/12/18 01:00:31;;;;;;;17.17;8.75;;;-1.50;99.90;;;;;;5012178;28;20230;-76
2021/12/18 01:03:00;;;;;;;13.73;8.07;;;-1.60;99.90;;;;;;5012376;28;20162;-75
2021/12/18 01:05:29;;;;;;;20.08;9.00;;;-1.70;99.90;;;;;;5010835;28;20206;-75
2021/12/18 01:07:57;;;;;;;14.90;7.57;;;-1.60;99.90;;;;;;5012193;28;20191;-75
2021/12/18 01:13:13;;;;;;;15.07;8.38;;;-1.40;99.90;;;;;;5011692;28;20158;-75
2021/12/18 01:15:50;;;;;;;14.20;7.65;;;-1.40;99.90;;;;;;5009717;28;20262;-75
2021/12/18 01:23:45;;;;;;;12.88;8.52;;;-1.50;99.90;;;;;;5011921;28;20204;-75
2021/12/18 01:26:11;;;;;;;14.63;7.80;;;-1.40;99.90;;;;;;4994322;28;20186;-74
2021/12/18 01:28:37;;;;;;;11.43;7.10;;;-1.20;99.90;;;;;;5019649;28;20193;-74
2021/12/18 01:31:03;;;;;;;13.43;6.82;;;-1.30;99.90;;;;;;5031211;28;20181;-74
2021/12/18 01:33:29;;;;;;;15.85;7.65;;;-1.40;99.90;;;;;;5031279;28;20162;-75
2021/12/18 01:35:59;;;;;;;15.38;7.00;;;-1.50;99.90;;;;;;5031237;28;20213;-75
2021/12/18 01:38:27;;;;;;;12.73;7.43;;;-1.40;99.90;;;;;;5031355;28;20161;-74
2021/12/18 01:40:54;;;;;;;11.27;6.95;;;-1.50;99.90;;;;;;5031152;28;20151;-74
2021/12/18 01:53:38;;;;;;;11.00;6.47;;;-1.60;99.90;;;;;;5031123;28;20162;-75
2021/12/18 01:56:05;;;;;;;15.43;7.32;;;-1.60;99.90;;;;;;5031110;28;20154;-77
2021/12/18 01:58:31;;;;;;;10.13;5.82;;;-1.50;99.90;;;;;;5030767;28;20229;-76
2021/12/18 02:00:59;;;;;;;12.20;6.18;;;-1.40;99.90;;;;;;5030914;28;20197;-76
2021/12/18 02:03:26;;;;;;;14.75;7.05;;;-1.50;99.90;;;;;;5030710;28;20173;-76
2021/12/18 02:05:52;;;;;;;19.58;6.95;;;-1.60;99.90;;;;;;5030786;28;20155;-76
2021/12/18 02:08:21;;;;;;;13.77;6.68;;;-1.60;99.90;;;;;;5030667;28;20222;-76
2021/12/18 02:10:54;;;;;;;13.20;6.47;;;-1.60;99.90;;;;;;5030689;28;20154;-76
2021/12/18 02:21:45;;;;;;;17.90;8.68;;;-1.50;99.90;;;;;;4969812;29;20214;-76
2021/12/18 02:24:12;;;;;;;33.03;10.73;;;-1.60;99.90;;;;;;4969034;29;20208;-76
2021/12/18 02:26:38;;;;;;;30.15;10.02;;;-1.80;99.90;;;;;;4969289;28;20192;-76
2021/12/18 02:29:05;;;;;;;30.85;9.60;;;-2.00;99.90;;;;;;4969611;29;20188;-76
2021/12/18 02:31:31;;;;;;;17.45;9.18;;;-2.10;99.90;;;;;;4969724;29;20176;-76
2021/12/18 02:33:58;;;;;;;15.95;7.53;;;-2.20;99.90;;;;;;4969728;29;20215;-76
2021/12/18 02:36:25;;;;;;;28.45;9.20;;;-2.10;99.90;;;;;;4969768;29;20212;-76
2021/12/18 02:43:52;;;;;;;18.67;8.02;;;-2.40;99.90;;;;;;4969539;29;20216;-77
2021/12/18 02:46:20;;;;;;;15.00;7.50;;;-2.40;99.90;;;;;;4953583;29;20235;-77
2021/12/18 02:48:51;;;;;;;18.08;8.05;;;-2.40;99.90;;;;;;4969518;29;20792;-76
2021/12/18 02:51:19;;;;;;;14.65;7.63;;;-2.30;99.90;;;;;;4969479;29;20291;-76
2021/12/18 02:53:48;;;;;;;13.38;7.60;;;-2.30;99.90;;;;;;4969479;29;20723;-77
2021/12/18 02:56:15;;;;;;;14.75;9.15;;;-2.20;99.90;;;;;;5013170;28;20232;-75
2021/12/18 02:58:46;;;;;;;17.40;9.65;;;-2.20;99.90;;;;;;5029768;28;20214;-76
2021/12/18 03:01:16;;;;;;;27.13;9.25;;;-2.30;99.90;;;;;;5029885;28;20170;-75
2021/12/18 03:03:44;;;;;;;19.52;10.25;;;-2.40;99.90;;;;;;5029649;28;20158;-75
2021/12/18 03:06:29;;;;;;;27.02;8.73;;;-2.40;99.90;;;;;;5012127;28;20182;-75
2021/12/18 03:23:14;;;;;;;15.70;8.68;;;-2.60;99.90;;;;;;4968948;29;20201;-76
2021/12/18 03:25:41;;;;;;;15.00;9.48;;;-2.70;99.90;;;;;;4969042;29;20222;-75
2021/12/18 03:28:08;;;;;;;16.08;7.38;;;-2.70;99.90;;;;;;4964762;29;20197;-75
2021/12/18 03:30:36;;;;;;;25.73;7.95;;;-2.70;99.90;;;;;;4966728;28;20190;-75
2021/12/18 03:33:03;;;;;;;13.57;8.25;;;-2.60;99.90;;;;;;4968850;29;20214;-75
2021/12/18 03:35:30;;;;;;;16.27;8.23;;;-2.60;99.90;;;;;;4968956;29;20192;-75
2021/12/18 03:37:56;;;;;;;17.65;8.52;;;-2.70;99.90;;;;;;4968150;29;20192;-75
2021/12/18 03:40:25;;;;;;;12.40;8.15;;;-2.70;99.90;;;;;;4968464;29;20270;-76
2021/12/18 03:42:51;;;;;;;19.92;8.63;;;-2.70;99.90;;;;;;4952572;29;20184;-76
2021/12/18 03:45:18;;;;;;;22.60;9.10;;;-2.80;99.90;;;;;;4968542;29;20203;-76
2021/12/18 03:47:47;;;;;;;12.77;8.13;;;-2.90;99.90;;;;;;4968674;29;20196;-77
2021/12/18 03:50:14;;;;;;;19.98;8.55;;;-2.90;99.90;;;;;;4968558;29;20186;-75
2021/12/18 03:52:40;;;;;;;14.43;8.48;;;-2.70;99.90;;;;;;4968764;29;20361;-76
2021/12/18 03:55:06;;;;;;;16.33;7.82;;;-2.70;99.90;;;;;;4968537;29;20188;-76
2021/12/18 03:57:32;;;;;;;14.70;7.80;;;-2.80;99.90;;;;;;5018852;28;20182;-75
2021/12/18 03:59:58;;;;;;;17.10;8.63;;;-2.80;99.90;;;;;;5028965;28;20225;-75
2021/12/18 04:02:24;;;;;;;15.10;8.10;;;-2.80;99.90;;;;;;5029112;28;20611;-75
2021/12/18 04:04:50;;;;;;;10.80;6.85;;;-2.90;99.90;;;;;;5028936;28;20282;-75
2021/12/18 04:07:16;;;;;;;10.40;6.63;;;-2.90;99.90;;;;;;5011254;28;20296;-75
2021/12/18 04:09:43;;;;;;;15.90;7.22;;;-2.90;99.90;;;;;;5028847;28;20155;-75
2021/12/18 04:12:10;;;;;;;15.88;8.40;;;-2.90;99.90;;;;;;5028860;28;20169;-76
2021/12/18 04:14:36;;;;;;;16.90;7.80;;;-2.80;99.90;;;;;;5028946;28;20190;-75
2021/12/18 04:17:03;;;;;;;16.05;7.05;;;-2.80;99.90;;;;;;5028919;28;20181;-75
2021/12/18 04:19:29;;;;;;;15.50;7.82;;;-2.90;99.90;;;;;;5028970;28;20158;-75
2021/12/18 04:21:55;;;;;;;13.63;7.40;;;-2.90;99.90;;;;;;5011186;28;20174;-75
2021/12/18 04:24:21;;;;;;;17.05;8.60;;;-3.00;99.90;;;;;;5028950;28;20197;-75
2021/12/18 04:26:47;;;;;;;13.40;8.93;;;-3.00;99.90;;;;;;5028836;28;20166;-75
2021/12/18 04:29:13;;;;;;;18.30;8.55;;;-3.10;99.90;;;;;;5028627;28;20174;-75
2021/12/18 04:31:39;;;;;;;15.23;8.60;;;-3.00;99.90;;;;;;5028778;28;20185;-75
2021/12/18 04:34:06;;;;;;;11.30;7.85;;;-2.90;99.90;;;;;;5028836;28;20624;-76
2021/12/18 04:36:33;;;;;;;15.32;8.77;;;-2.90;99.90;;;;;;5028680;28;20257;-75
2021/12/18 04:38:59;;;;;;;21.52;9.68;;;-2.80;99.90;;;;;;5028809;28;20257;-75
2021/12/18 04:41:42;;;;;;;15.50;8.30;;;-2.80;99.90;;;;;;5028979;28;20170;-75
2021/12/18 04:44:08;;;;;;;22.58;9.68;;;-2.80;99.90;;;;;;5028746;28;20205;-76
2021/12/18 04:46:35;;;;;;;22.15;9.18;;;-2.80;99.90;;;;;;5028697;28;20161;-75
2021/12/18 04:49:01;;;;;;;16.60;9.05;;;-2.80;99.90;;;;;;5012576;28;20205;-76
2021/12/18 04:51:27;;;;;;;13.90;8.00;;;-2.70;99.90;;;;;;5032171;28;20217;-76
2021/12/18 04:53:53;;;;;;;14.68;8.07;;;-2.60;99.90;;;;;;5032179;28;20200;-76
2021/12/18 04:56:19;;;;;;;17.02;8.57;;;-2.60;99.90;;;;;;5031942;28;20626;-76
2021/12/18 04:58:45;;;;;;;16.17;8.35;;;-2.50;99.90;;;;;;5031756;28;20687;-75
2021/12/18 05:01:11;;;;;;;15.82;8.25;;;-2.20;99.90;;;;;;5031900;28;20205;-76
2021/12/18 05:03:40;;;;;;;12.43;8.57;;;-2.30;99.90;;;;;;5031944;28;20168;-76
2021/12/18 05:06:06;;;;;;;14.40;7.72;;;-2.50;99.90;;;;;;5031859;28;20185;-75
2021/12/18 05:08:32;;;;;;;12.63;6.65;;;-2.60;99.90;;;;;;5014213;28;20202;-75
2021/12/18 05:10:58;;;;;;;28.15;10.45;;;-2.60;99.90;;;;;;5031625;28;20192;-76
2021/12/18 05:13:24;;;;;;;15.52;8.77;;;-2.70;99.90;;;;;;5031734;28;20155;-75
2021/12/18 05:15:50;;;;;;;11.18;7.38;;;-2.70;99.90;;;;;;5013839;28;20197;-76
2021/12/18 05:18:16;;;;;;;16.35;9.30;;;-2.70;99.90;;;;;;5014138;28;20174;-76
2021/12/18 05:20:42;;;;;;;14.15;7.38;;;-2.70;99.90;;;;;;5013915;28;20202;-75
2021/12/18 05:23:08;;;;;;;14.25;7.85;;;-2.70;99.90;;;;;;5013856;28;20174;-76
2021/12/18 05:25:34;;;;;;;15.93;9.27;;;-2.60;99.90;;;;;;5031586;28;20240;-76
2021/12/18 05:28:00;;;;;;;15.13;7.65;;;-2.60;99.90;;;;;;5031558;28;20634;-76
2021/12/18 05:30:26;;;;;;;16.45;8.60;;;-2.60;99.90;;;;;;5030397;28;20166;-76
2021/12/18 05:32:53;;;;;;;16.10;9.20;;;-2.50;99.90;;;;;;5013816;28;20182;-76
2021/12/18 05:35:19;;;;;;;11.90;6.88;;;-2.50;99.90;;;;;;5031250;28;20546;-76
2021/12/18 05:40:20;;;;;;;15.30;8.43;;;-2.50;99.90;;;;;;5031390;28;20193;-75
2021/12/18 05:42:47;;;;;;;15.38;8.35;;;-2.50;99.90;;;;;;5031207;28;20216;-75
2021/12/18 05:45:14;;;;;;;13.55;7.57;;;-2.50;99.90;;;;;;5013538;28;20205;-76
2021/12/18 05:47:40;;;;;;;12.07;7.32;;;-2.40;99.90;;;;;;5030921;28;20352;-74
2021/12/18 05:50:08;;;;;;;11.88;6.93;;;-2.50;99.90;;;;;;5013077;28;20170;-75
2021/12/18 05:52:34;;;;;;;11.55;7.00;;;-2.50;99.90;;;;;;5030846;28;20190;-75
2021/12/18 05:55:00;;;;;;;10.63;6.80;;;-2.50;99.90;;;;;;5030961;28;20254;-75
2021/12/18 05:57:26;;;;;;;15.10;9.10;;;-2.20;99.90;;;;;;5030977;28;20190;-75
2021/12/18 05:59:51;;;;;;;9.30;5.88;;;-2.00;99.90;;;;;;5029878;28;20279;-76
2021/12/18 06:02:17;;;;;;;14.73;7.30;;;-2.00;99.90;;;;;;5030781;28;20251;-75
2021/12/18 06:04:44;;;;;;;16.67;6.97;;;-2.10;99.90;;;;;;5030774;28;20162;-75
2021/12/18 06:07:17;;;;;;;11.57;6.50;;;-2.20;99.90;;;;;;5030577;28;20244;-75
2021/12/18 06:09:43;;;;;;;14.70;6.57;;;-2.40;99.90;;;;;;5030813;28;20230;-75
2021/12/18 06:12:10;;;;;;;14.25;7.35;;;-2.60;99.90;;;;;;5030540;28;20186;-74
2021/12/18 06:14:35;;;;;;;20.33;7.40;;;-2.80;99.90;;;;;;5030629;28;20646;-75
2021/12/18 06:17:01;;;;;;;11.48;6.82;;;-2.70;99.90;;;;;;5030451;28;20159;-76
2021/12/18 06:19:27;;;;;;;14.50;6.95;;;-2.70;99.90;;;;;;5012978;28;20170;-75
2021/12/18 06:21:53;;;;;;;14.02;7.18;;;-2.70;99.90;;;;;;5030489;28;20217;-75
2021/12/18 06:24:19;;;;;;;11.48;6.00;;;-2.60;99.90;;;;;;5030592;28;20166;-76
2021/12/18 06:26:45;;;;;;;11.07;6.40;;;-2.60;99.90;;;;;;5012665;28;20166;-75
2021/12/18 06:29:11;;;;;;;13.23;7.53;;;-2.80;99.90;;;;;;5030222;28;20154;-75
2021/12/18 06:31:39;;;;;;;11.77;7.28;;;-2.90;99.90;;;;;;5030169;28;20200;-74
2021/12/18 06:34:05;;;;;;;15.95;8.18;;;-3.00;99.90;;;;;;5030185;28;20191;-75
2021/12/18 06:36:31;;;;;;;14.85;7.43;;;-3.20;99.90;;;;;;5030288;28;20154;-74
2021/12/18 06:38:57;;;;;;;13.32;7.25;;;-3.10;99.90;;;;;;5012427;28;20182;-76
2021/12/18 06:41:23;;;;;;;17.35;8.30;;;-3.10;99.90;;;;;;5030061;28;20194;-76
2021/12/18 06:43:50;;;;;;;16.88;7.78;;;-3.20;99.90;;;;;;5030081;28;20206;-75
2021/12/18 06:46:16;;;;;;;15.73;7.07;;;-3.20;99.90;;;;;;5029993;28;20209;-75
2021/12/18 06:48:42;;;;;;;12.48;8.48;;;-3.30;99.90;;;;;;5029816;28;20189;-75
2021/12/18 06:51:08;;;;;;;13.93;7.25;;;-3.20;99.90;;;;;;5029558;28;20213;-73
2021/12/18 06:53:34;;;;;;;15.38;8.13;;;-3.30;99.90;;;;;;5029802;28;20688;-75
2021/12/18 06:56:00;;;;;;;16.50;8.45;;;-3.40;99.90;;;;;;5029825;28;20150;-76
2021/12/18 06:58:25;;;;;;;13.85;6.88;;;-3.30;99.90;;;;;;5028989;28;20217;-75
2021/12/18 07:00:53;;;;;;;14.90;6.63;;;-3.30;99.90;;;;;;5029566;28;20202;-76
2021/12/18 07:03:20;;;;;;;11.00;7.70;;;-3.20;99.90;;;;;;5029788;28;20655;-75
2021/12/18 07:05:47;;;;;;;12.32;7.13;;;-3.20;99.90;;;;;;5029616;28;20178;-74
2021/12/18 07:08:14;;;;;;;15.43;8.23;;;-3.10;99.90;;;;;;5029639;28;20193;-76
2021/12/18 07:10:41;;;;;;;14.77;7.50;;;-3.00;99.90;;;;;;5011774;28;20197;-76
2021/12/18 07:13:07;;;;;;;10.57;7.40;;;-3.00;99.90;;;;;;5029416;28;20178;-76
2021/12/18 07:15:33;;;;;;;11.13;8.43;;;-3.20;99.90;;;;;;5029389;28;20177;-76
2021/12/18 07:18:00;;;;;;;13.63;8.60;;;-3.10;99.90;;;;;;5029576;28;20234;-76
2021/12/18 07:20:27;;;;;;;15.57;8.25;;;-2.90;99.90;;;;;;5029295;28;20632;-75
2021/12/18 07:22:54;;;;;;;16.10;7.78;;;-3.00;99.90;;;;;;5029360;28;20154;-76
2021/12/18 07:25:20;;;;;;;16.83;8.48;;;-3.00;99.90;;;;;;5029462;28;20170;-75
2021/12/18 07:27:46;;;;;;;16.85;8.32;;;-3.00;99.90;;;;;;5029159;28;20200;-76
2021/12/18 07:30:13;;;;;;;13.95;8.27;;;-2.90;99.90;;;;;;5011309;28;20199;-76
2021/12/18 07:32:39;;;;;;;12.50;7.15;;;-2.90;99.90;;;;;;5029328;28;20229;-75
2021/12/18 07:35:07;;;;;;;17.75;8.88;;;-2.90;99.90;;;;;;5029300;28;20181;-76
2021/12/18 07:37:33;;;;;;;14.82;7.93;;;-2.80;99.90;;;;;;5029165;28;20253;-76
2021/12/18 07:39:59;;;;;;;10.30;6.80;;;-2.80;99.90;;;;;;5029380;28;20162;-76
2021/12/18 07:42:26;;;;;;;16.33;8.60;;;-2.60;99.90;;;;;;5011217;28;20224;-76
2021/12/18 07:44:52;;;;;;;18.58;9.40;;;-2.20;99.90;;;;;;5028795;28;20157;-75
2021/12/18 07:47:19;;;;;;;13.88;8.43;;;-2.20;99.90;;;;;;5029121;28;20224;-76
2021/12/18 07:49:45;;;;;;;16.60;8.75;;;-2.20;99.90;;;;;;5029048;28;20176;-77
2021/12/18 07:52:12;;;;;;;16.17;8.70;;;-2.00;99.90;;;;;;5029146;28;20190;-75
2021/12/18 07:54:38;;;;;;;21.58;10.45;;;-1.80;99.90;;;;;;5028923;28;20242;-76
2021/12/18 07:57:04;;;;;;;17.40;9.70;;;-1.70;99.90;;;;;;5029054;28;20217;-75
2021/12/18 07:59:30;;;;;;;19.00;11.18;;;-1.50;99.90;;;;;;5028891;28;20222;-76
2021/12/18 08:01:56;;;;;;;28.00;14.52;;;0.20;99.90;;;;;;5028708;28;20202;-77
2021/12/18 08:04:22;;;;;;;35.53;18.27;;;1.30;99.90;;;;;;5028819;28;20500;-75
2021/12/18 08:06:48;;;;;;;28.13;17.42;;;1.70;99.90;;;;;;5028779;28;20162;-76
2021/12/18 08:09:14;;;;;;;41.08;20.35;;;2.40;99.90;;;;;;5028936;28;20162;-77
2021/12/18 08:11:40;;;;;;;45.28;24.05;;;3.80;99.90;;;;;;5028718;28;20301;-78
2021/12/18 08:14:06;;;;;;;42.75;23.92;;;6.00;99.90;;;;;;5027676;28;20181;-78
2021/12/18 08:16:32;;;;;;;42.88;24.45;;;7.50;99.90;;;;;;5027771;28;20273;-78
2021/12/18 08:18:57;;;;;;;37.13;21.98;;;7.50;99.90;;;;;;5028677;28;20163;-80
2021/12/18 08:21:23;;;;;;;33.00;20.13;;;7.90;99.90;;;;;;5028581;28;20174;-79
2021/12/18 08:23:49;;;;;;;27.60;18.88;;;7.00;99.90;;;;;;5017955;28;20173;-80
2021/12/18 08:26:15;;;;;;;26.88;17.48;;;7.80;99.90;;;;;;5021945;28;20202;-80
2021/12/18 08:28:41;;;;;;;22.38;14.90;;;9.00;99.90;;;;;;5006239;28;20198;-80
2021/12/18 08:31:07;;;;;;;18.30;11.18;;;9.00;99.90;;;;;;5007871;28;20165;-81
2021/12/18 08:33:33;;;;;;;14.45;8.02;;;9.20;99.90;;;;;;5023330;28;20218;-82
2021/12/18 08:35:59;;;;;;;8.15;5.25;;;10.30;99.90;;;;;;5025925;28;20194;-82
2021/12/18 08:38:25;;;;;;;7.72;5.07;;;10.60;99.90;;;;;;5023676;28;20623;-83
2021/12/18 08:40:51;;;;;;;5.47;4.10;;;10.90;99.90;;;;;;5024833;28;20180;-82
2021/12/18 08:43:17;;;;;;;9.90;3.90;;;11.10;99.90;;;;;;5024724;28;20216;-84
2021/12/18 08:45:43;;;;;;;4.28;2.35;;;11.70;99.90;;;;;;5006373;28;20171;-84
2021/12/18 08:48:09;;;;;;;8.88;3.28;;;11.10;99.90;;;;;;5025319;28;20201;-82
2021/12/18 08:50:36;;;;;;;12.00;3.28;;;11.40;99.90;;;;;;5007864;28;20174;-84
2021/12/18 08:53:01;;;;;;;4.88;2.45;;;12.30;99.90;;;;;;5004307;28;20158;-82
2021/12/18 08:55:27;;;;;;;9.18;5.20;;;13.40;99.90;;;;;;5022908;28;20209;-82
2021/12/18 08:57:54;;;;;;;10.52;7.25;;;13.10;99.90;;;;;;5025345;28;20229;-83
2021/12/18 09:00:23;;;;;;;17.00;9.15;;;10.90;99.90;;;;;;5027476;28;20229;-81
2021/12/18 09:02:54;;;;;;;13.95;8.02;;;8.80;99.90;;;;;;5028284;28;20674;-82
2021/12/18 09:05:22;;;;;;;12.23;7.40;;;8.00;99.90;;;;;;5027606;28;20722;-83
2021/12/18 09:07:48;;;;;;;9.40;5.90;;;7.00;99.90;;;;;;5030027;28;20217;-79
2021/12/18 09:10:15;;;;;;;7.40;6.05;;;6.90;99.90;;;;;;5002177;28;20174;-81
2021/12/18 09:12:42;;;;;;;7.75;5.32;;;6.60;99.90;;;;;;5008290;28;20181;-81
2021/12/18 09:15:09;;;;;;;8.20;5.57;;;6.20;99.90;;;;;;5014817;28;20206;-81
2021/12/18 09:17:34;;;;;;;8.60;5.60;;;6.80;99.90;;;;;;5025017;28;20194;-80
2021/12/18 09:20:01;;;;;;;8.15;5.53;;;6.40;99.90;;;;;;5021041;28;20177;-81
2021/12/18 09:22:27;;;;;;;10.15;5.53;;;6.20;99.90;;;;;;5017991;28;20171;-81
2021/12/18 09:24:53;;;;;;;8.32;5.60;;;6.20;99.90;;;;;;5027547;28;20176;-80
2021/12/18 09:27:19;;;;;;;9.00;5.95;;;6.20;99.90;;;;;;5014626;28;20643;-79
2021/12/18 09:29:45;;;;;;;8.90;5.55;;;6.20;99.90;;;;;;5023601;28;20166;-80
2021/12/18 09:32:11;;;;;;;7.50;5.30;;;6.20;99.90;;;;;;5022121;28;20197;-80
2021/12/18 09:34:37;;;;;;;7.88;5.18;;;7.10;99.90;;;;;;5015407;28;20169;-79
2021/12/18 09:37:04;;;;;;;6.25;5.43;;;8.10;99.90;;;;;;5026874;28;20198;-80
2021/12/18 09:39:30;;;;;;;8.43;5.05;;;8.10;99.90;;;;;;5016125;28;20158;-80
2021/12/18 09:41:56;;;;;;;6.63;4.57;;;8.50;99.90;;;;;;5021701;28;20173;-81
2021/12/18 09:44:28;;;;;;;10.27;6.43;;;9.20;99.90;;;;;;5005790;28;20178;-80
2021/12/18 09:46:55;;;;;;;7.25;5.75;;;10.10;99.90;;;;;;5014134;28;20196;-82
2021/12/18 09:49:21;;;;;;;9.57;5.47;;;11.00;99.90;;;;;;5026390;28;20167;-82
2021/12/18 09:51:48;;;;;;;7.30;5.07;;;11.20;99.90;;;;;;5018295;28;20158;-82
2021/12/18 09:54:14;;;;;;;8.55;5.40;;;11.90;99.90;;;;;;5019238;28;20309;-83
2021/12/18 09:56:40;;;;;;;7.78;5.22;;;11.60;99.90;;;;;;5007785;28;20197;-82
2021/12/18 09:59:07;;;;;;;7.68;5.25;;;10.80;99.90;;;;;;5013888;28;20257;-82
2021/12/18 10:01:35;;;;;;;6.00;4.50;;;10.00;99.90;;;;;;5006617;28;20644;-82
2021/12/18 10:04:03;;;;;;;8.80;5.15;;;10.10;99.90;;;;;;5020040;28;20166;-82
2021/12/18 10:06:44;;;;;;;6.65;4.72;;;11.00;99.90;;;;;;5027648;28;20189;-81
2021/12/18 10:09:10;;;;;;;6.32;4.72;;;11.80;99.90;;;;;;5026345;28;20198;-81
2021/12/18 10:11:50;;;;;;;7.00;4.50;;;12.40;99.90;;;;;;5024417;28;20163;-79
2021/12/18 10:14:18;;;;;;;7.32;4.93;;;12.50;99.90;;;;;;5021736;28;20245;-79
2021/12/18 10:16:47;;;;;;;7.32;4.72;;;13.30;99.90;;;;;;5011609;28;20193;-80
2021/12/18 10:19:34;;;;;;;9.10;4.13;;;13.70;99.90;;;;;;5025758;28;20255;-80
2021/12/18 10:22:02;;;;;;;10.65;5.05;;;14.20;99.90;;;;;;5010646;28;20224;-79
2021/12/18 10:24:30;;;;;;;6.57;3.17;;;14.60;99.90;;;;;;5026872;28;20176;-78
2021/12/18 10:26:57;;;;;;;6.78;3.28;;;14.90;98.40;;;;;;5011750;28;20202;-77
2021/12/18 10:29:37;;;;;;;9.18;3.90;;;15.10;99.30;;;;;;5024659;28;20163;-78
2021/12/18 10:32:14;;;;;;;4.03;3.10;;;15.50;99.90;;;;;;5025077;28;20185;-76
2021/12/18 10:34:41;;;;;;;5.57;1.83;;;16.30;99.70;;;;;;5001652;28;20170;-77
2021/12/18 10:37:11;;;;;;;3.47;1.00;;;15.60;97.50;;;;;;5024128;28;20197;-77
2021/12/18 10:39:44;;;;;;;6.80;0.98;;;13.50;96.20;;;;;;5024352;28;20168;-77
2021/12/18 10:42:42;;;;;;;1.38;0.60;;;12.70;98.20;;;;;;5026535;28;20181;-79
2021/12/18 10:45:19;;;;;;;7.75;3.55;;;12.80;98.20;;;;;;5025538;28;20166;-77
2021/12/18 10:47:51;;;;;;;19.05;5.63;;;13.60;99.90;;;;;;5018129;28;20232;-77
2021/12/18 10:50:31;;;;;;;8.88;4.80;;;12.40;99.90;;;;;;5023825;28;20168;-74
2021/12/18 10:53:17;;;;;;;15.40;5.70;;;10.70;99.90;;;;;;5029771;28;20221;-78
2021/12/18 10:56:01;;;;;;;7.03;5.13;;;11.00;99.90;;;;;;4991727;28;20198;-76
2021/12/18 10:58:34;;;;;;;14.65;4.97;;;11.00;99.90;;;;;;5009851;28;20221;-75
2021/12/18 11:01:05;;;;;;;17.60;6.03;;;11.20;99.90;;;;;;5009711;28;20167;-76
2021/12/18 11:03:33;;;;;;;10.55;5.78;;;11.40;99.90;;;;;;5009667;28;20163;-74
2021/12/18 11:06:11;;;;;;;8.38;4.68;;;10.90;99.90;;;;;;5021325;28;20233;-76
2021/12/18 11:09:00;;;;;;;11.20;5.47;;;9.70;99.90;;;;;;5029428;28;20620;-75
2021/12/18 11:14:02;;;;;;;8.05;4.72;;;9.60;99.90;;;;;;5029195;28;20171;-79
2021/12/18 11:16:29;;;;;;;7.90;4.75;;;11.20;99.90;;;;;;5011534;28;20201;-75
2021/12/18 11:18:56;;;;;;;9.90;5.25;;;11.70;99.90;;;;;;5028894;28;20620;-75
2021/12/18 11:21:26;;;;;;;9.60;5.47;;;11.40;99.90;;;;;;5028990;28;20162;-78
2021/12/18 11:24:01;;;;;;;7.65;4.95;;;11.50;99.90;;;;;;5029095;28;20166;-78
2021/12/18 11:26:41;;;;;;;7.32;5.20;;;11.20;99.90;;;;;;5029095;28;20205;-75
2021/12/18 11:29:21;;;;;;;12.23;5.22;;;11.60;99.90;;;;;;5028716;28;20213;-76
2021/12/18 11:31:48;;;;;;;9.73;3.97;;;12.60;99.90;;;;;;5028978;28;20154;-76
2021/12/18 11:34:16;;;;;;;10.45;3.90;;;13.00;99.90;;;;;;5028628;28;20260;-75
2021/12/18 11:36:44;;;;;;;6.57;3.42;;;12.30;99.90;;;;;;5028476;28;20591;-75
2021/12/18 11:39:12;;;;;;;12.85;4.32;;;12.60;99.90;;;;;;5028861;28;20539;-76
2021/12/18 11:41:39;;;;;;;4.75;3.42;;;12.20;99.90;;;;;;5028561;28;20161;-75
2021/12/18 11:44:25;;;;;;;5.00;3.03;;;12.60;99.90;;;;;;5028734;28;20165;-76
2021/12/18 11:46:51;;;;;;;5.53;3.20;;;12.60;99.90;;;;;;5028713;28;20197;-75
2021/12/18 11:49:19;;;;;;;7.53;3.67;;;12.60;99.90;;;;;;5028771;28;20194;-74
2021/12/18 11:52:04;;;;;;;12.10;3.38;;;12.60;99.90;;;;;;5028761;28;20509;-74
2021/12/18 11:54:43;;;;;;;6.68;3.40;;;12.20;99.90;;;;;;5028760;28;20225;-74
2021/12/18 11:57:11;;;;;;;9.77;4.47;;;11.40;99.90;;;;;;5010865;28;20251;-75
2021/12/18 11:59:38;;;;;;;8.30;3.83;;;11.60;99.90;;;;;;5031704;28;20249;-75
2021/12/18 12:02:04;;;;;;;7.50;4.15;;;12.50;99.90;;;;;;5015160;28;20285;-74
2021/12/18 12:05:01;;;;;;;6.50;4.25;;;11.90;99.90;;;;;;5032845;28;20174;-75
2021/12/18 12:07:27;;;;;;;9.02;4.85;;;11.60;99.90;;;;;;5032591;28;20202;-74
2021/12/18 12:10:21;;;;;;;5.30;3.88;;;12.10;99.90;;;;;;5032644;28;20158;-75
2021/12/18 12:12:50;;;;;;;9.30;3.63;;;11.70;99.90;;;;;;5032564;28;20254;-74
2021/12/18 12:15:18;;;;;;;12.45;4.25;;;11.60;99.90;;;;;;5014989;28;20170;-74
2021/12/18 12:17:55;;;;;;;5.28;4.00;;;11.30;99.90;;;;;;5032401;28;20196;-76
2021/12/18 12:20:43;;;;;;;10.27;4.47;;;10.70;99.90;;;;;;5032364;28;20193;-75
2021/12/18 12:23:11;;;;;;;4.45;3.67;;;10.80;99.90;;;;;;5032312;28;20185;-76
2021/12/18 12:25:44;;;;;;;9.07;3.95;;;10.80;99.90;;;;;;5014569;28;20169;-76
2021/12/18 12:28:14;;;;;;;9.85;3.72;;;10.40;99.90;;;;;;5032021;28;20220;-74
2021/12/18 12:30:50;;;;;;;7.28;3.28;;;9.20;99.90;;;;;;5014572;28;20166;-73
2021/12/18 12:33:26;;;;;;;6.15;3.53;;;8.70;99.90;;;;;;5032185;28;20157;-73
2021/12/18 12:35:53;;;;;;;5.78;3.08;;;8.60;99.90;;;;;;5032070;28;20170;-75
2021/12/18 12:38:24;;;;;;;7.28;3.17;;;8.50;99.90;;;;;;5032175;28;20653;-74
2021/12/18 12:40:50;;;;;;;5.30;3.03;;;8.40;99.90;;;;;;5031920;28;20229;-74
2021/12/18 12:43:28;;;;;;;10.65;4.30;;;8.00;99.90;;;;;;5031703;28;20186;-75
2021/12/18 12:45:59;;;;;;;4.68;3.60;;;8.00;99.90;;;;;;5031758;28;20162;-74
2021/12/18 12:48:59;;;;;;;6.60;3.83;;;8.10;99.90;;;;;;5031613;28;20212;-74
2021/12/18 12:51:26;;;;;;;8.45;3.42;;;7.90;99.90;;;;;;5014039;28;20181;-75
2021/12/18 12:53:53;;;;;;;7.88;4.13;;;7.40;99.90;;;;;;5031768;28;20177;-75
2021/12/18 12:56:22;;;;;;;9.68;4.18;;;7.10;99.90;;;;;;5031614;28;20193;-75
2021/12/18 12:59:19;;;;;;;9.45;4.43;;;6.90;99.90;;;;;;5019346;28;20247;-74
2021/12/18 13:01:45;;;;;;;6.30;4.50;;;6.80;99.90;;;;;;5051620;28;20173;-75
2021/12/18 13:04:15;;;;;;;8.20;4.22;;;6.90;99.90;;;;;;5051450;28;20169;-75
2021/12/18 13:06:41;;;;;;;6.53;3.42;;;6.80;99.90;;;;;;5051335;28;20208;-75
2021/12/18 13:09:08;;;;;;;10.02;4.07;;;6.80;99.90;;;;;;5051125;28;20197;-75
2021/12/18 13:11:35;;;;;;;7.97;4.30;;;6.70;99.90;;;;;;5051362;28;20229;-75
2021/12/18 13:14:01;;;;;;;4.00;3.15;;;6.70;99.90;;;;;;5051521;28;20680;-75
2021/12/18 13:16:27;;;;;;;8.15;2.67;;;6.70;99.90;;;;;;5051205;28;20197;-74
2021/12/18 13:18:58;;;;;;;11.70;4.00;;;6.60;99.90;;;;;;5066430;28;20192;-74
2021/12/18 13:21:26;;;;;;;8.07;3.67;;;6.50;99.90;;;;;;5051225;28;20680;-75
2021/12/18 13:24:06;;;;;;;6.65;3.38;;;6.70;99.90;;;;;;5051249;28;20161;-77
2021/12/18 13:26:36;;;;;;;7.03;3.90;;;6.70;99.90;;;;;;5051057;28;20249;-78
2021/12/18 13:29:12;;;;;;;8.48;3.72;;;6.60;99.90;;;;;;5066473;28;20247;-77
2021/12/18 13:31:56;;;;;;;7.22;3.83;;;6.60;99.90;;;;;;5071168;28;20653;-76
2021/12/18 13:34:37;;;;;;;5.47;3.92;;;6.60;99.90;;;;;;5070773;28;20181;-77
2021/12/18 13:37:10;;;;;;;5.53;3.58;;;6.30;99.90;;;;;;5069655;28;20196;-76
2021/12/18 13:39:44;;;;;;;5.55;3.70;;;6.30;99.90;;;;;;5070971;28;20156;-77